Time;durP1;ratioP1;P1;durP2;ratioP2;P2;SDS_P1;SDS_P2;PMS_P1;PMS_P2;Temp;Humidity;BMP_temperature;BMP_pressure;BME280_temperature;BME280_humidity;BME280_pressure;Samples;Min_cycle;Max_cycle;Signal;HPM_P1;HPM_P2
2021/05/14 00:00:46;;;;;;;8.90;4.60;;;;;;;15.02;68.09;98815.94;4954538;28;99483;-79
2021/05/14 00:03:11;;;;;;;5.65;4.22;;;;;;;14.96;68.17;98820.84;4938585;28;100590;-81
2021/05/14 00:05:37;;;;;;;4.75;4.03;;;;;;;14.99;68.27;98816.16;4938805;28;96107;-79
2021/05/14 00:08:04;;;;;;;6.03;3.90;;;;;;;15.02;67.89;98817.75;4954790;28;96020;-79
2021/05/14 00:10:29;;;;;;;5.85;4.13;;;;;;;14.99;67.97;98816.16;4940526;28;99921;-80
2021/05/14 00:12:55;;;;;;;6.95;3.75;;;;;;;15.00;67.99;98814.38;4958848;28;99164;-79
2021/05/14 00:15:21;;;;;;;6.78;3.88;;;;;;;14.94;68.15;98821.78;4958757;28;95871;-79
2021/05/14 00:17:48;;;;;;;5.57;3.90;;;;;;;14.91;68.22;98808.81;4974999;28;96486;-79
2021/05/14 00:20:13;;;;;;;6.93;3.63;;;;;;;14.93;68.30;98820.13;4955846;28;97404;-79
2021/05/14 00:22:39;;;;;;;5.22;3.63;;;;;;;15.03;68.19;98825.53;4956732;28;99027;-79
2021/05/14 00:25:06;;;;;;;5.15;4.03;;;;;;;15.02;67.80;98817.75;4956136;28;95781;-79
2021/05/14 00:27:32;;;;;;;7.50;4.13;;;;;;;14.96;68.07;98815.56;4956297;28;96012;-79
2021/05/14 00:29:57;;;;;;;5.43;3.78;;;;;;;14.99;67.95;98832.03;4972199;28;96733;-79
2021/05/14 00:32:23;;;;;;;6.63;3.88;;;;;;;15.01;67.82;98821.31;4939047;28;99486;-79
2021/05/14 00:34:48;;;;;;;6.15;4.07;;;;;;;14.97;67.66;98823.38;4939987;28;95781;-79
2021/05/14 00:37:14;;;;;;;5.90;3.67;;;;;;;14.95;67.54;98822.63;4939631;28;95881;-79
2021/05/14 00:39:40;;;;;;;5.82;3.63;;;;;;;14.94;67.84;98819.16;4957178;28;96245;-79
2021/05/14 00:42:05;;;;;;;4.70;3.58;;;;;;;14.95;67.96;98827.91;4940677;28;99604;-79
2021/05/14 00:44:38;;;;;;;4.35;3.40;;;;;;;14.92;67.80;98825.50;4956664;28;95934;-79
2021/05/14 00:47:08;;;;;;;5.50;3.38;;;;;;;14.83;67.60;98828.84;4942034;28;96485;-79
2021/05/14 00:49:34;;;;;;;5.20;3.58;;;;;;;14.84;67.99;98819.97;4959189;28;99313;-79
2021/05/14 00:52:00;;;;;;;4.88;3.50;;;;;;;14.83;68.00;98826.19;4959523;28;98748;-79
2021/05/14 00:54:41;;;;;;;5.53;3.40;;;;;;;14.86;67.71;98826.81;4943413;28;95755;-79
2021/05/14 00:57:08;;;;;;;9.50;3.53;;;;;;;14.86;67.89;98836.53;4960153;28;98077;-78
2021/05/14 00:59:33;;;;;;;5.68;3.70;;;;;;;14.86;67.92;98839.19;4960160;28;96460;-79
2021/05/14 01:01:59;;;;;;;4.43;2.83;;;;;;;14.90;67.89;98828.28;4961332;28;99664;-79
2021/05/14 01:04:24;;;;;;;5.50;3.72;;;;;;;14.84;68.00;98831.38;4963806;28;96592;-79
2021/05/14 01:06:51;;;;;;;6.70;3.95;;;;;;;14.81;67.98;98831.63;4946240;28;95942;-78
2021/05/14 01:09:16;;;;;;;4.82;3.88;;;;;;;14.82;67.62;98825.38;4962983;28;99242;-79
2021/05/14 01:14:41;;;;;;;9.52;3.80;;;;;;;14.78;68.31;98829.22;5280674;22;98062;-80
2021/05/14 01:17:06;;;;;;;6.63;3.97;;;;;;;14.75;68.33;98828.56;4962693;28;96019;-79
2021/05/14 01:19:32;;;;;;;7.10;4.57;;;;;;;14.80;68.53;98824.63;4962291;28;99278;-80
2021/05/14 01:21:58;;;;;;;6.30;3.83;;;;;;;14.79;68.52;98824.75;4948164;28;99358;-79
2021/05/14 01:27:13;;;;;;;5.57;3.83;;;;;;;14.74;68.52;98826.91;5349368;22;99361;-80
2021/05/14 01:29:38;;;;;;;8.23;4.40;;;;;;;14.74;68.26;98826.91;5012935;28;96839;-79
2021/05/14 01:32:04;;;;;;;6.95;3.88;;;;;;;14.78;68.12;98828.38;4996271;28;99510;-79
2021/05/14 01:34:30;;;;;;;24.23;20.25;;;;;;;14.79;68.45;98827.41;4997137;28;95887;-79
2021/05/14 01:36:55;;;;;;;8.00;3.97;;;;;;;14.73;68.07;98825.22;4998315;28;96003;-79
2021/05/14 01:39:25;;;;;;;7.85;4.22;;;;;;;14.74;68.80;98827.72;4982535;28;99199;-80
2021/05/14 01:45:51;;;;;;;7.53;3.78;;;;;;;14.69;68.54;98828.09;5017026;28;95760;-79
2021/05/14 01:51:19;;;;;;;7.13;3.05;;;;;;;14.70;68.38;98824.47;5638750;22;99319;-79
2021/05/14 01:53:45;;;;;;;6.30;3.33;;;;;;;14.73;68.29;98822.59;4966217;28;99931;-80
2021/05/14 01:56:10;;;;;;;10.00;4.00;;;;;;;14.68;68.31;98825.56;4966666;28;95823;-79
2021/05/14 01:58:36;;;;;;;8.82;3.70;;;;;;;14.68;68.79;98831.66;4967010;28;95817;-79
2021/05/14 02:01:03;;;;;;;5.75;3.05;;;;;;;14.66;68.77;98825.69;4966295;28;99377;-80
2021/05/14 02:03:28;;;;;;;6.85;3.67;;;;;;;14.71;68.92;98827.97;5123386;22;99178;-79
2021/05/14 02:06:18;;;;;;;5.63;3.70;;;;;;;14.68;68.58;98834.31;4983192;28;95793;-79
2021/05/14 02:08:44;;;;;;;5.72;3.13;;;;;;;14.66;68.55;98828.31;5001405;28;96551;-79
2021/05/14 02:11:10;;;;;;;10.68;3.80;;;;;;;14.65;68.51;98826.63;4984218;28;99357;-80
2021/05/14 02:16:31;;;;;;;5.13;3.33;;;;;;;14.65;68.53;98826.63;5615889;22;98637;-80
2021/05/14 02:18:57;;;;;;;6.07;3.53;;;;;;;14.67;68.72;98818.59;4962106;28;96112;-80
2021/05/14 02:21:22;;;;;;;5.22;3.42;;;;;;;14.70;68.30;98819.19;4962540;28;99460;-80
2021/05/14 02:23:48;;;;;;;8.30;3.28;;;;;;;14.67;68.52;98819.44;4949258;28;99284;-80
2021/05/14 02:29:09;;;;;;;8.93;3.55;;;;;;;14.63;68.67;98825.91;5753210;22;98364;-80
2021/05/14 02:31:34;;;;;;;4.15;2.97;;;;;;;14.58;69.21;98822.75;4961695;28;96496;-80
2021/05/14 02:34:00;;;;;;;4.75;3.35;;;;;;;14.59;68.89;98831.53;4995977;28;96317;-79
2021/05/14 02:36:26;;;;;;;4.47;3.10;;;;;;;14.63;68.72;98832.97;4948109;28;95798;-80
2021/05/14 02:41:41;;;;;;;3.83;2.50;;;;;;;14.62;68.67;98833.94;5454833;22;98452;-80
2021/05/14 02:44:06;;;;;;;5.22;2.53;;;;;;;14.63;68.96;98847.03;4947702;28;99439;-79
2021/05/14 02:46:33;;;;;;;3.35;2.72;;;;;;;14.58;68.44;98833.31;4949160;28;95899;-80
2021/05/14 02:48:59;;;;;;;5.93;3.00;;;;;;;14.61;68.66;98837.53;4965205;28;96497;-79
2021/05/14 02:51:34;;;;;;;3.38;2.70;;;;;;;14.61;68.79;98829.63;4964922;28;99371;-79
2021/05/14 03:00:22;;;;;;;9.32;4.65;;;;;;;14.53;68.95;98851.31;5529875;22;98837;-78
2021/05/14 03:02:48;;;;;;;9.32;3.22;;;;;;;14.56;68.69;98847.59;5000677;28;99695;-78
2021/05/14 03:05:14;;;;;;;3.85;2.75;;;;;;;14.62;68.36;98852.41;5001547;28;99349;-80
2021/05/14 03:08:05;;;;;;;3.30;2.33;;;;;;;14.55;68.93;98853.84;5001963;28;95813;-80
2021/05/14 03:19:11;;;;;;;4.93;3.33;;;;;;;14.48;68.30;98848.13;5618689;22;99428;-79
2021/05/14 03:24:36;;;;;;;4.10;3.50;;;;;;;14.46;68.45;98852.69;5964887;22;98839;-79
2021/05/14 03:27:01;;;;;;;5.55;3.25;;;;;;;14.47;68.71;98857.00;5146275;23;98833;-79
2021/05/14 03:29:27;;;;;;;5.15;3.38;;;;;;;14.47;68.79;98857.84;5737611;22;99262;-80
2021/05/14 03:31:53;;;;;;;5.15;3.38;;;;;;;14.51;68.45;98858.44;5003131;28;95779;-82
2021/05/14 03:37:00;;;;;;;3.55;2.78;;;;;;;14.44;68.82;98858.06;5975602;22;98800;-80
2021/05/14 03:39:26;;;;;;;7.55;3.67;;;;;;;14.38;69.20;98863.78;4967416;28;95859;-79
2021/05/14 03:53:41;;;;;;;6.80;3.20;;;;;;;14.40;68.90;98872.44;5589502;22;98911;-80
2021/05/14 03:56:06;;;;;;;5.63;2.80;;;;;;;14.40;68.32;98876.91;4984244;28;96531;-79
2021/05/14 04:03:56;;;;;;;12.90;3.97;;;;;;;14.46;68.50;98876.44;6059503;22;99347;-79
2021/05/14 04:06:22;;;;;;;5.60;3.65;;;;;;;14.45;68.74;98874.75;4982201;28;96729;-79
2021/05/14 04:08:48;;;;;;;8.70;3.50;;;;;;;14.49;68.42;98871.78;4984207;28;99478;-80
2021/05/14 04:14:31;;;;;;;7.97;3.90;;;;;;;14.45;68.31;98874.75;6003489;22;99337;-79
2021/05/14 04:16:58;;;;;;;4.70;3.38;;;;;;;14.44;67.89;98879.19;4984519;28;99482;-79
2021/05/14 04:19:33;;;;;;;6.50;3.10;;;;;;;14.44;68.37;98881.81;4984175;28;99458;-80
2021/05/14 04:22:00;;;;;;;5.32;3.03;;;;;;;14.41;68.66;98884.69;4984327;28;95878;-81
2021/05/14 04:24:27;;;;;;;4.57;3.40;;;;;;;14.46;68.48;98885.22;4984376;28;95771;-79
2021/05/14 04:26:57;;;;;;;5.07;3.53;;;;;;;14.49;68.05;98887.63;4967995;28;100961;-79
2021/05/14 04:29:46;;;;;;;5.20;2.90;;;;;;;14.49;68.46;98887.63;5001404;28;96643;-80
2021/05/14 04:34:54;;;;;;;6.18;3.63;;;;;;;14.46;68.74;98884.38;5901654;22;98535;-79
2021/05/14 04:37:19;;;;;;;10.70;3.65;;;;;;;14.44;68.54;98889.75;4969910;28;99539;-82
2021/05/14 04:43:20;;;;;;;7.78;3.15;;;;;;;14.44;68.50;98887.09;6119489;22;98991;-79
2021/05/14 04:45:46;;;;;;;5.65;3.20;;;;;;;14.44;68.25;98888.91;4986629;28;96071;-81
2021/05/14 04:48:11;;;;;;;3.50;2.88;;;;;;;14.47;68.11;98893.97;4987606;28;96706;-80
2021/05/14 04:53:21;;;;;;;4.88;3.53;;;;;;;14.50;68.09;98899.03;5951017;22;99213;-80
2021/05/14 05:01:46;;;;;;;7.65;6.57;;;;;;;14.48;67.97;98900.91;5871038;22;99705;-79
2021/05/14 05:04:12;;;;;;;7.80;7.30;;;;;;;14.50;67.88;98906.94;4939124;28;95669;-79
2021/05/14 05:09:19;;;;;;;7.07;5.30;;;;;;;14.49;68.37;98908.75;5457297;22;99103;-80
2021/05/14 05:11:45;;;;;;;5.28;4.40;;;;;;;14.52;68.61;98898.94;4944170;28;96802;-79
2021/05/14 05:14:10;;;;;;;7.00;6.45;;;;;;;14.58;68.19;98907.25;4946743;28;95945;-81
2021/05/14 05:16:36;;;;;;;5.70;5.10;;;;;;;14.60;67.89;98902.72;4963554;28;95792;-80
2021/05/14 05:19:30;;;;;;;4.10;3.30;;;;;;;14.57;67.70;98910.00;4930584;28;99482;-79
2021/05/14 05:21:56;;;;;;;12.00;6.00;;;;;;;14.57;68.21;98910.84;5493307;22;856720;-82
2021/05/14 05:24:21;;;;;;;9.68;4.13;;;;;;;14.57;68.11;98910.00;5458241;23;99224;-80
2021/05/14 05:26:47;;;;;;;5.35;2.80;;;;;;;14.57;67.80;98918.75;4908239;28;95999;-79
2021/05/14 05:29:13;;;;;;;7.18;3.55;;;;;;;14.58;68.03;98922.28;4909848;28;99806;-79
2021/05/14 05:34:25;;;;;;;3.67;3.22;;;;;;;14.56;67.95;98918.88;5552599;22;98509;-80
2021/05/14 05:36:51;;;;;;;5.72;2.72;;;;;;;14.57;67.81;98926.69;4960899;28;96006;-80
2021/05/14 05:39:16;;;;;;;7.32;2.78;;;;;;;14.61;67.41;98925.53;4961197;28;96550;-80
2021/05/14 05:44:41;;;;;;;5.43;2.92;;;;;;;14.67;67.34;98933.00;5437506;22;99257;-79
2021/05/14 05:47:07;;;;;;;5.07;2.33;;;;;;;14.68;67.33;98933.84;4942021;28;96525;-79
2021/05/14 05:49:33;;;;;;;3.03;2.72;;;;;;;14.66;67.74;98936.59;4961111;28;96505;-79
2021/05/14 05:51:58;;;;;;;6.75;2.60;;;;;;;14.67;67.65;98943.56;4944646;28;99191;-79
2021/05/14 05:54:24;;;;;;;5.85;2.50;;;;;;;14.67;67.42;98945.38;4945975;28;96014;-80
2021/05/14 05:56:50;;;;;;;2.90;2.47;;;;;;;14.77;67.19;98948.16;4946550;28;95984;-78
2021/05/14 05:59:19;;;;;;;8.15;3.30;;;;;;;14.75;67.17;98943.00;4945190;28;99283;-79
2021/05/14 06:01:44;;;;;;;6.13;2.58;;;;;;;14.78;66.51;98944.59;4961693;28;99418;-80
2021/05/14 06:04:10;;;;;;;7.00;2.42;;;;;;;14.74;66.68;98951.88;4928497;28;96021;-78
2021/05/14 06:06:36;;;;;;;7.28;2.33;;;;;;;14.79;67.00;98955.03;4925970;28;95914;-80
2021/05/14 06:09:03;;;;;;;6.32;5.72;;;;;;;14.79;66.51;98955.03;4924021;28;99380;-80
2021/05/14 06:11:29;;;;;;;7.43;6.72;;;;;;;14.78;66.63;98958.63;4945113;28;96653;-79
2021/05/14 06:17:11;;;;;;;2.35;2.15;;;;;;;14.81;66.31;98963.69;5183684;22;98996;-80
2021/05/14 06:19:44;;;;;;;7.78;2.33;;;;;;;14.91;66.22;98963.84;4927147;28;99895;-80
2021/05/14 06:22:10;;;;;;;3.58;2.05;;;;;;;14.94;66.15;98961.00;4931459;28;96615;-81
2021/05/14 06:24:35;;;;;;;7.53;2.05;;;;;;;14.96;66.24;98963.53;4930037;28;96327;-80
2021/05/14 06:27:01;;;;;;;6.10;2.42;;;;;;;15.03;66.18;98970.03;4915311;28;96114;-80
2021/05/14 06:29:26;;;;;;;3.03;2.05;;;;;;;15.02;66.11;98971.00;4925020;28;99792;-80
2021/05/14 06:31:54;;;;;;;3.55;2.42;;;;;;;15.16;65.81;98970.81;4918847;28;99744;-79
2021/05/14 06:34:19;;;;;;;6.80;2.75;;;;;;;15.24;65.68;98970.22;4936434;28;96229;-80
2021/05/14 06:36:45;;;;;;;8.48;2.72;;;;;;;15.17;65.83;98970.69;4914411;28;96543;-81
2021/05/14 06:39:10;;;;;;;3.13;2.10;;;;;;;15.29;65.24;98976.03;4901406;28;99779;-80
2021/05/14 06:41:36;;;;;;;2.75;2.17;;;;;;;15.35;64.94;98971.13;4912571;28;96755;-81
2021/05/14 06:44:01;;;;;;;4.07;1.83;;;;;;;15.34;65.08;98973.91;4908112;28;96988;-81
2021/05/14 06:46:27;;;;;;;5.95;2.33;;;;;;;15.45;65.05;98973.09;4918720;28;97088;-81
2021/05/14 06:48:53;;;;;;;7.65;2.60;;;;;;;15.45;65.32;98973.09;4914971;28;99294;-83
2021/05/14 06:51:19;;;;;;;3.78;1.80;;;;;;;15.51;64.63;98977.91;4914847;28;96935;-81
2021/05/14 06:53:46;;;;;;;4.43;2.10;;;;;;;15.44;64.61;98982.81;4906781;28;96670;-82
2021/05/14 06:56:12;;;;;;;3.00;1.58;;;;;;;15.41;64.56;98993.63;4902182;28;97055;-82
2021/05/14 06:58:38;;;;;;;2.35;1.40;;;;;;;15.33;64.81;98988.91;4909556;28;99687;-82
2021/05/14 07:01:03;;;;;;;4.43;1.95;;;;;;;15.40;64.94;99005.16;4897168;28;98807;-83
2021/05/14 07:03:29;;;;;;;3.13;1.77;;;;;;;15.33;64.90;99001.28;4905943;28;97011;-82
2021/05/14 07:05:55;;;;;;;6.07;1.80;;;;;;;15.33;64.52;99012.72;4906643;28;96687;-81
2021/05/14 07:08:21;;;;;;;2.40;1.70;;;;;;;15.33;64.75;99012.72;4921581;28;100011;-83
2021/05/14 07:10:47;;;;;;;4.72;2.00;;;;;;;15.20;65.15;99019.00;4920501;28;99501;-82
2021/05/14 07:13:12;;;;;;;3.22;1.98;;;;;;;15.17;65.15;99020.06;4908395;28;96641;-83
2021/05/14 07:15:38;;;;;;;2.75;1.98;;;;;;;15.19;65.02;99010.25;4906909;28;96540;-84
2021/05/14 07:18:03;;;;;;;1.73;1.63;;;;;;;15.20;65.01;99014.56;4913190;28;96773;-82
2021/05/14 07:20:32;;;;;;;3.65;1.80;;;;;;;15.28;64.54;99017.50;4914233;28;100184;-83
2021/05/14 07:22:58;;;;;;;3.70;1.92;;;;;;;15.26;64.72;99016.75;4937633;28;96733;-82
2021/05/14 07:25:24;;;;;;;3.30;1.88;;;;;;;15.22;64.62;99015.31;4931622;28;97173;-81
2021/05/14 07:27:49;;;;;;;5.15;2.30;;;;;;;15.21;64.80;99010.94;4939169;28;99683;-83
2021/05/14 07:30:15;;;;;;;5.82;1.95;;;;;;;15.18;64.65;99016.47;4927072;28;99166;-82
2021/05/14 07:32:41;;;;;;;3.80;2.13;;;;;;;15.22;64.68;99022.41;4934849;28;97080;-82
2021/05/14 07:35:07;;;;;;;3.92;2.17;;;;;;;15.23;64.38;99022.25;4930261;28;96777;-82
2021/05/14 07:37:33;;;;;;;2.60;1.67;;;;;;;15.26;64.70;99027.31;4924277;28;99830;-81
2021/05/14 07:39:59;;;;;;;3.95;1.88;;;;;;;15.29;64.39;99015.69;4916954;28;96494;-82
2021/05/14 07:42:25;;;;;;;3.15;1.75;;;;;;;15.28;64.46;99028.06;4937535;28;96928;-83
2021/05/14 07:44:51;;;;;;;5.72;2.13;;;;;;;15.33;64.12;99023.28;4935063;28;96934;-84
2021/05/14 07:47:17;;;;;;;6.43;2.17;;;;;;;15.34;64.31;99027.59;4936850;28;96904;-82
2021/05/14 07:49:42;;;;;;;3.03;1.70;;;;;;;15.39;64.21;99027.28;4932549;28;96788;-80
2021/05/14 07:52:09;;;;;;;4.45;1.75;;;;;;;15.38;64.32;99025.56;4933377;28;96676;-82
2021/05/14 07:54:34;;;;;;;4.22;1.88;;;;;;;15.49;64.28;99022.97;4929762;28;96988;-82
2021/05/14 07:57:00;;;;;;;7.80;3.58;;;;;;;15.56;63.89;99021.56;4902457;28;99485;-84
2021/05/14 07:59:27;;;;;;;9.50;5.10;;;;;;;15.63;64.01;99028.06;4911952;28;99494;-85
2021/05/14 08:01:52;;;;;;;2.85;2.28;;;;;;;15.65;63.57;99027.09;4925963;28;97019;-84
2021/05/14 08:04:18;;;;;;;6.88;2.58;;;;;;;15.69;63.40;99031.25;4907627;28;97278;-85
2021/05/14 08:06:44;;;;;;;2.53;1.80;;;;;;;15.72;63.17;99026.56;4913402;28;99769;-85
2021/05/14 08:09:12;;;;;;;3.30;2.15;;;;;;;15.63;63.44;99029.88;4916040;28;100164;-85
2021/05/14 08:11:37;;;;;;;8.27;2.00;;;;;;;15.67;63.70;99030.50;4915168;28;97370;-85
2021/05/14 08:14:03;;;;;;;2.60;1.90;;;;;;;15.69;62.84;99032.09;4909004;28;96797;-84
2021/05/14 08:16:29;;;;;;;4.90;1.85;;;;;;;15.73;62.81;99033.53;4908333;28;96745;-86
2021/05/14 08:18:55;;;;;;;2.35;1.63;;;;;;;15.70;62.83;99033.78;4930278;28;99561;-83
2021/05/14 08:21:21;;;;;;;2.85;1.75;;;;;;;15.73;62.94;99044.13;4915539;28;97073;-84
2021/05/14 08:23:47;;;;;;;3.03;1.88;;;;;;;15.62;62.69;99041.44;4898590;28;96613;-85
2021/05/14 08:26:13;;;;;;;1.80;1.50;;;;;;;15.50;63.24;99040.53;4883823;28;99392;-84
2021/05/14 08:28:39;;;;;;;5.97;2.00;;;;;;;15.55;63.45;99041.03;4909600;28;99187;-87
2021/05/14 08:31:05;;;;;;;4.68;2.15;;;;;;;15.56;63.55;99047.16;4917763;28;96918;-82
2021/05/14 08:33:30;;;;;;;3.78;1.90;;;;;;;15.68;63.13;99042.78;4890169;28;96978;-85
2021/05/14 08:35:56;;;;;;;4.68;1.95;;;;;;;15.76;62.87;99049.19;4907047;28;99588;-82
2021/05/14 08:38:22;;;;;;;3.75;1.92;;;;;;;15.78;63.12;99043.78;4907471;28;101110;-87
2021/05/14 08:40:47;;;;;;;5.95;1.95;;;;;;;15.75;62.91;99052.78;4928509;28;97210;-86
2021/05/14 08:43:15;;;;;;;3.65;1.88;;;;;;;15.85;62.81;99060.88;4919620;28;96785;-87
2021/05/14 08:45:41;;;;;;;2.50;1.85;;;;;;;15.87;62.74;99066.91;4914611;28;101507;-87
2021/05/14 08:48:12;;;;;;;5.47;1.70;;;;;;;15.82;62.72;99061.09;4901128;28;100815;-86
2021/05/14 08:50:39;;;;;;;4.38;1.70;;;;;;;15.83;62.51;99066.28;4937947;28;96919;-86
2021/05/14 08:53:05;;;;;;;4.45;1.60;;;;;;;15.88;62.71;99070.38;4902891;28;96933;-86
2021/05/14 08:55:31;;;;;;;3.25;1.40;;;;;;;15.91;62.53;99078.97;4896609;28;97533;-86
2021/05/14 08:57:58;;;;;;;2.25;2.05;;;;;;;15.80;62.59;99079.75;4900434;28;102035;-81
2021/05/14 09:00:24;;;;;;;3.83;2.50;;;;;;;15.73;62.88;99081.16;4918729;28;96811;-87
2021/05/14 09:02:51;;;;;;;3.53;2.05;;;;;;;15.79;62.74;99083.34;4897133;28;97312;-85
2021/05/14 09:05:27;;;;;;;2.55;2.00;;;;;;;15.80;62.38;99085.03;4882292;28;101535;-85
2021/05/14 09:07:55;;;;;;;9.68;2.55;;;;;;;15.65;62.81;99085.31;4900179;28;99540;-88
2021/05/14 09:10:22;;;;;;;2.90;1.83;;;;;;;15.57;62.81;99092.03;4883693;28;96745;-86
2021/05/14 09:12:48;;;;;;;2.92;2.00;;;;;;;15.51;62.96;99094.28;4918628;28;96935;-86
2021/05/14 09:15:29;;;;;;;3.00;2.33;;;;;;;15.56;63.00;99098.28;4900559;28;99539;-86
2021/05/14 09:18:11;;;;;;;4.13;2.40;;;;;;;15.53;62.62;99092.34;4902596;28;99147;-87
2021/05/14 09:20:43;;;;;;;2.85;2.40;;;;;;;15.57;62.75;99097.31;4922724;28;96988;-85
2021/05/14 09:23:15;;;;;;;4.20;2.47;;;;;;;15.43;62.94;99104.56;4902634;28;96998;-86
2021/05/14 09:25:51;;;;;;;5.07;2.30;;;;;;;15.46;63.07;99112.28;4920618;28;96941;-85
2021/05/14 09:31:15;;;;;;;3.53;2.40;;;;;;;15.47;63.46;99108.66;4970664;23;96891;-84
2021/05/14 09:33:45;;;;;;;8.25;3.22;;;;;;;15.56;63.35;99113.28;4922964;28;96779;-85
2021/05/14 09:36:13;;;;;;;4.10;2.78;;;;;;;15.59;63.53;99111.28;4920760;28;99923;-86
2021/05/14 09:38:47;;;;;;;11.40;2.70;;;;;;;15.62;62.83;99113.69;4921373;28;99951;-83
2021/05/14 09:41:41;;;;;;;5.82;2.60;;;;;;;15.68;62.90;99114.19;4918015;28;96848;-87
2021/05/14 09:44:11;;;;;;;6.05;2.13;;;;;;;15.67;62.66;99121.25;4902407;28;97000;-84
2021/05/14 09:46:57;;;;;;;4.80;2.20;;;;;;;15.74;62.77;99121.72;4936057;28;97206;-86
2021/05/14 09:49:25;;;;;;;6.07;2.38;;;;;;;15.75;62.61;99118.94;4903228;28;99531;-79
2021/05/14 09:51:58;;;;;;;2.03;1.83;;;;;;;15.68;62.72;99125.66;4901978;28;97184;-78
2021/05/14 09:54:25;;;;;;;4.32;1.92;;;;;;;15.63;62.36;99128.59;4936128;28;96793;-87
2021/05/14 10:00:04;;;;;;;2.55;1.73;;;;;;;15.63;62.15;99125.94;5004006;22;98651;-85
2021/05/14 10:02:35;;;;;;;3.75;1.88;;;;;;;15.63;62.37;99127.75;4922511;28;96994;-88
2021/05/14 10:05:06;;;;;;;2.85;2.33;;;;;;;15.69;62.28;99129.13;4908741;28;96861;-86
2021/05/14 10:07:34;;;;;;;4.30;2.00;;;;;;;15.67;62.85;99137.13;4922878;28;100378;-86
2021/05/14 10:10:02;;;;;;;2.67;2.17;;;;;;;15.73;62.12;99136.72;4922917;28;97546;-86
2021/05/14 10:12:28;;;;;;;4.18;2.22;;;;;;;15.83;61.98;99136.91;4910157;28;96814;-85
2021/05/14 10:14:57;;;;;;;5.43;2.22;;;;;;;15.92;61.66;99130.91;4921904;28;97083;-86
2021/05/14 10:17:22;;;;;;;3.72;2.38;;;;;;;15.94;61.67;99136.94;4904859;28;100057;-85
2021/05/14 10:19:49;;;;;;;4.13;2.08;;;;;;;15.97;61.89;99146.44;4904367;28;100025;-86
2021/05/14 10:22:15;;;;;;;5.97;2.40;;;;;;;15.91;61.77;99138.94;4936603;28;97159;-85
2021/05/14 10:24:46;;;;;;;7.05;2.63;;;;;;;15.83;61.84;99147.47;4920245;28;97017;-86
2021/05/14 10:27:23;;;;;;;15.95;3.65;;;;;;;15.82;62.05;99151.94;4915615;28;97608;-85
2021/05/14 10:29:52;;;;;;;3.42;2.95;;;;;;;15.82;61.86;99148.41;4904268;28;99316;-85
2021/05/14 10:32:43;;;;;;;4.25;2.58;;;;;;;15.71;61.78;99154.53;4935109;28;97353;-86
2021/05/14 10:35:13;;;;;;;6.95;3.00;;;;;;;15.77;61.92;99155.88;4918454;28;96859;-84
2021/05/14 10:37:51;;;;;;;7.10;2.67;;;;;;;15.83;61.65;99158.91;4919003;28;99240;-87
2021/05/14 10:40:30;;;;;;;6.80;3.53;;;;;;;15.92;61.36;99153.88;4917366;28;96899;-87
2021/05/14 10:42:56;;;;;;;7.63;3.50;;;;;;;16.14;60.36;99153.09;4917455;28;96679;-85
2021/05/14 10:45:49;;;;;;;8.32;3.47;;;;;;;16.32;59.90;99154.38;4900573;28;97107;-83
2021/05/14 10:48:19;;;;;;;9.55;3.63;;;;;;;16.45;60.23;99155.13;4895065;28;101593;-83
2021/05/14 10:50:56;;;;;;;4.25;2.50;;;;;;;16.59;59.47;99156.72;4884349;28;99964;-83
2021/05/14 10:53:26;;;;;;;4.00;3.00;;;;;;;16.55;59.63;99152.63;4914863;28;99575;-84
2021/05/14 10:55:53;;;;;;;6.50;3.30;;;;;;;16.62;59.44;99151.16;4900166;28;98244;-84
2021/05/14 10:58:38;;;;;;;4.85;3.10;;;;;;;16.74;59.47;99160.81;4882675;28;101723;-83
2021/05/14 11:01:06;;;;;;;4.20;3.05;;;;;;;16.59;59.16;99162.00;4899436;28;101567;-81
2021/05/14 11:03:33;;;;;;;4.30;2.78;;;;;;;16.50;59.42;99168.00;4900044;28;96604;-84
2021/05/14 11:06:19;;;;;;;7.90;3.22;;;;;;;16.45;59.51;99173.66;4916004;28;96878;-84
2021/05/14 11:09:07;;;;;;;5.13;2.60;;;;;;;16.40;59.55;99170.50;4899610;28;101256;-84
2021/05/14 11:11:33;;;;;;;3.35;2.45;;;;;;;16.36;58.89;99176.16;4900299;28;97324;-84
2021/05/14 11:14:16;;;;;;;3.60;2.72;;;;;;;16.12;59.18;99179.72;4915991;28;96574;-84
2021/05/14 11:16:44;;;;;;;3.10;2.80;;;;;;;16.13;59.73;99183.19;4933353;28;96976;-84
2021/05/14 11:19:28;;;;;;;4.93;3.03;;;;;;;16.06;59.23;99188.13;4898157;28;100513;-79
2021/05/14 11:22:11;;;;;;;4.03;3.55;;;;;;;15.99;59.94;99185.06;4883324;28;101297;-81
2021/05/14 11:24:38;;;;;;;3.88;3.05;;;;;;;16.09;59.42;99182.59;4883878;28;96987;-84
2021/05/14 11:27:21;;;;;;;7.35;3.50;;;;;;;16.15;59.98;99184.78;4900047;28;97467;-86
2021/05/14 11:29:52;;;;;;;7.07;3.15;;;;;;;16.16;59.52;99183.81;4917207;28;98616;-86
2021/05/14 11:32:19;;;;;;;3.63;3.33;;;;;;;16.15;59.54;99176.84;4929216;28;98492;-79
2021/05/14 11:34:55;;;;;;;4.43;3.38;;;;;;;16.14;60.03;99183.06;4896492;28;97137;-78
2021/05/14 11:37:23;;;;;;;6.03;3.90;;;;;;;16.16;60.18;99185.59;4915667;28;97128;-78
2021/05/14 11:39:49;;;;;;;6.30;3.28;;;;;;;16.30;59.77;99188.06;4899240;28;100655;-78
2021/05/14 11:42:20;;;;;;;6.13;3.85;;;;;;;16.33;59.68;99195.78;4914406;28;98083;-79
2021/05/14 11:44:57;;;;;;;3.80;3.28;;;;;;;16.43;59.74;99190.63;4916666;28;97590;-85
2021/05/14 11:47:23;;;;;;;7.75;3.75;;;;;;;16.62;58.76;99193.56;4933480;28;97138;-85
2021/05/14 11:49:49;;;;;;;4.70;3.30;;;;;;;16.63;58.22;99184.63;4911571;28;101754;-85
2021/05/14 11:52:17;;;;;;;6.25;2.97;;;;;;;16.84;57.56;99189.28;4931385;28;98050;-85
2021/05/14 11:54:43;;;;;;;4.57;3.30;;;;;;;16.79;57.86;99194.94;4932117;28;96852;-86
2021/05/14 11:57:08;;;;;;;5.30;3.13;;;;;;;16.86;58.15;99200.59;4916721;28;96969;-86
2021/05/14 11:59:43;;;;;;;3.45;2.63;;;;;;;17.19;56.45;99194.44;4917115;28;101839;-85
2021/05/14 12:02:55;;;;;;;4.55;2.85;;;;;;;17.36;57.05;99190.47;4902422;28;100264;-85
2021/05/14 12:05:21;;;;;;;6.47;2.67;;;;;;;17.33;56.66;99193.34;4926167;28;97072;-85
2021/05/14 12:07:48;;;;;;;4.45;2.67;;;;;;;17.13;56.74;99195.81;4918473;28;96907;-84
2021/05/14 12:10:15;;;;;;;2.92;2.33;;;;;;;17.13;57.14;99206.41;4912483;28;101439;-85
2021/05/14 12:12:42;;;;;;;2.95;2.13;;;;;;;17.24;56.96;99200.25;4914493;28;98376;-84
2021/05/14 12:15:07;;;;;;;4.53;1.75;;;;;;;17.51;56.36;99199.00;4911261;28;97131;-84
2021/05/14 12:17:37;;;;;;;2.15;1.60;;;;;;;17.53;56.00;99200.56;4919235;28;96953;-84
2021/05/14 12:20:25;;;;;;;4.18;1.75;;;;;;;17.45;55.83;99202.16;4915648;28;101508;-84
2021/05/14 12:22:54;;;;;;;7.97;1.95;;;;;;;17.53;55.70;99199.72;4915902;28;99741;-85
2021/05/14 12:25:21;;;;;;;4.13;2.10;;;;;;;17.39;56.49;99206.13;4899546;28;97210;-85
2021/05/14 12:27:46;;;;;;;6.78;2.17;;;;;;;17.32;56.20;99210.25;4916451;28;96894;-85
2021/05/14 12:30:15;;;;;;;3.33;1.70;;;;;;;17.24;55.84;99208.19;4906016;28;100575;-81
2021/05/14 12:32:41;;;;;;;10.65;2.38;;;;;;;16.96;55.87;99206.88;4880443;28;100881;-84
2021/05/14 12:35:07;;;;;;;4.13;1.60;;;;;;;17.20;56.53;99210.25;4898743;28;97264;-85
2021/05/14 12:37:34;;;;;;;3.83;1.63;;;;;;;17.26;55.90;99213.41;4895840;28;97289;-83
2021/05/14 12:40:00;;;;;;;5.65;1.83;;;;;;;17.35;56.25;99223.25;4896485;28;101578;-85
2021/05/14 12:42:30;;;;;;;4.13;1.50;;;;;;;17.32;56.05;99215.56;4900899;28;99936;-85
2021/05/14 12:44:59;;;;;;;2.80;1.70;;;;;;;17.20;56.50;99220.03;4888800;28;96841;-85
2021/05/14 12:47:27;;;;;;;2.75;1.60;;;;;;;17.26;56.44;99227.50;4887810;28;96929;-85
2021/05/14 12:49:58;;;;;;;4.10;1.70;;;;;;;17.07;56.24;99224.59;4891279;28;101318;-85
2021/05/14 12:52:28;;;;;;;7.43;1.80;;;;;;;17.08;56.13;99226.28;4910132;28;100464;-85
2021/05/14 12:55:02;;;;;;;5.30;1.63;;;;;;;17.16;55.86;99226.50;4906257;28;96895;-86
2021/05/14 12:57:51;;;;;;;4.63;1.77;;;;;;;16.96;56.12;99234.22;4917135;28;97023;-85
2021/05/14 13:00:20;;;;;;;4.47;1.75;;;;;;;16.86;56.34;99232.41;4934259;28;97915;-85
2021/05/14 13:02:54;;;;;;;2.38;1.60;;;;;;;16.84;56.27;99235.19;4918377;28;100993;-85
2021/05/14 13:05:37;;;;;;;4.53;1.75;;;;;;;16.78;56.96;99246.22;4902404;28;97096;-85
2021/05/14 13:08:05;;;;;;;2.35;1.80;;;;;;;16.73;56.96;99246.56;4919478;28;96749;-86
2021/05/14 13:10:35;;;;;;;9.07;2.13;;;;;;;16.80;56.21;99246.97;4915713;28;97997;-85
2021/05/14 13:13:01;;;;;;;3.03;1.80;;;;;;;16.81;56.43;99255.75;4927451;28;97322;-85